TAM1316 SBSG-SBPL
Flight info
| Callsign | TAM1316 |
|---|---|
| Flight time | 1h 5m |
| Altitude | 38000 |
| Route | OPVAR UZ94 MEBLO |
| Aircraft | A319/M-SDE3FGHIRWY/LB1 |
Departure
| Time | 2026-04-22 22:24 |
|---|---|
| Airport | Rio Grande do Norte/São Gonçalo do Amarante–Governador Aluízio Alves International Airport (SBSG) |
Arrival
| Time | 2026-04-22 23:30 |
|---|---|
| Airport | Senador Nilo Coelho Airport (SBPL) |
| Time | Latitude | Longitude | Altitude | Speed | Heading |
|---|---|---|---|---|---|
| 2026-04-22 22:11 | -5.76434 | -35.37351 | 296 ft | 0 kts | 10° |
| 2026-04-22 22:15 | -5.76448 | -35.37353 | 297 ft | 2 kts | 9° |
| 2026-04-22 22:15 | -5.76462 | -35.37356 | 297 ft | 2 kts | 10° |
| 2026-04-22 22:15 | -5.76477 | -35.37358 | 297 ft | 2 kts | 10° |
| 2026-04-22 22:16 | -5.76486 | -35.37360 | 297 ft | 1 kts | 11° |
| 2026-04-22 22:16 | -5.76501 | -35.37358 | 297 ft | 2 kts | 329° |
| 2026-04-22 22:16 | -5.76512 | -35.37348 | 296 ft | 2 kts | 294° |
| 2026-04-22 22:16 | -5.76514 | -35.37340 | 297 ft | 1 kts | 274° |
| 2026-04-22 22:17 | -5.76515 | -35.37335 | 297 ft | 0 kts | 278° |
| 2026-04-22 22:17 | -5.76515 | -35.37336 | 296 ft | 0 kts | 278° |
| 2026-04-22 22:18 | -5.76512 | -35.37352 | 296 ft | 7 kts | 279° |
| 2026-04-22 22:18 | -5.76498 | -35.37437 | 296 ft | 14 kts | 279° |
| 2026-04-22 22:19 | -5.76487 | -35.37460 | 296 ft | 4 kts | 79° |
| 2026-04-22 22:19 | -5.76500 | -35.37414 | 296 ft | 10 kts | 107° |
| 2026-04-22 22:19 | -5.76515 | -35.37331 | 296 ft | 13 kts | 101° |
| 2026-04-22 22:19 | -5.76540 | -35.37251 | 296 ft | 11 kts | 140° |
| 2026-04-22 22:20 | -5.76618 | -35.37249 | 296 ft | 11 kts | 189° |
| 2026-04-22 22:20 | -5.76692 | -35.37264 | 296 ft | 13 kts | 198° |
| 2026-04-22 22:20 | -5.76700 | -35.37338 | 296 ft | 11 kts | 279° |
| 2026-04-22 22:20 | -5.76686 | -35.37417 | 296 ft | 13 kts | 279° |
| 2026-04-22 22:21 | -5.76669 | -35.37522 | 296 ft | 16 kts | 279° |
| 2026-04-22 22:21 | -5.76649 | -35.37640 | 296 ft | 18 kts | 279° |
| 2026-04-22 22:21 | -5.76628 | -35.37771 | 296 ft | 19 kts | 279° |
| 2026-04-22 22:21 | -5.76609 | -35.37883 | 296 ft | 13 kts | 279° |
| 2026-04-22 22:22 | -5.76637 | -35.37958 | 296 ft | 9 kts | 205° |
| 2026-04-22 22:22 | -5.76678 | -35.37968 | 296 ft | 0 kts | 189° |
| 2026-04-22 22:22 | -5.76694 | -35.37970 | 296 ft | 6 kts | 191° |
| 2026-04-22 22:23 | -5.76755 | -35.37974 | 296 ft | 10 kts | 156° |
| 2026-04-22 22:23 | -5.76775 | -35.37948 | 296 ft | 0 kts | 101° |
| 2026-04-22 22:23 | -5.76775 | -35.37947 | 296 ft | 1 kts | 101° |
| 2026-04-22 22:23 | -5.76808 | -35.37747 | 297 ft | 65 kts | 100° |
| 2026-04-22 22:24 | -5.76920 | -35.37056 | 297 ft | 132 kts | 99° |
| 2026-04-22 22:24 | -5.77090 | -35.35982 | 490 ft | 167 kts | 99° |
| 2026-04-22 22:24 | -5.77266 | -35.34804 | 1159 ft | 170 kts | 100° |
| 2026-04-22 22:24 | -5.77434 | -35.33738 | 2019 ft | 156 kts | 99° |
| 2026-04-22 22:25 | -5.77423 | -35.32652 | 2542 ft | 164 kts | 71° |
| 2026-04-22 22:25 | -5.76703 | -35.31708 | 2911 ft | 184 kts | 35° |
| 2026-04-22 22:25 | -5.75403 | -35.31343 | 3316 ft | 207 kts | 355° |
| 2026-04-22 22:25 | -5.74045 | -35.31971 | 3778 ft | 228 kts | 312° |
| 2026-04-22 22:26 | -5.73254 | -35.33409 | 4300 ft | 245 kts | 288° |
| 2026-04-22 22:26 | -5.72723 | -35.35120 | 4859 ft | 263 kts | 285° |
| 2026-04-22 22:26 | -5.72196 | -35.36930 | 5453 ft | 280 kts | 285° |
| 2026-04-22 22:26 | -5.71627 | -35.38765 | 6296 ft | 286 kts | 287° |
| 2026-04-22 22:27 | -5.71000 | -35.40682 | 7210 ft | 290 kts | 287° |
| 2026-04-22 22:27 | -5.70343 | -35.42622 | 8152 ft | 293 kts | 288° |
| 2026-04-22 22:27 | -5.69694 | -35.44525 | 9043 ft | 296 kts | 288° |
| 2026-04-22 22:27 | -5.69012 | -35.46522 | 9931 ft | 300 kts | 287° |
| 2026-04-22 22:28 | -5.68513 | -35.48591 | 10648 ft | 308 kts | 275° |
| 2026-04-22 22:28 | -5.68523 | -35.50564 | 11043 ft | 322 kts | 260° |
| 2026-04-22 22:28 | -5.68990 | -35.52766 | 11686 ft | 331 kts | 254° |
| 2026-04-22 22:28 | -5.69589 | -35.55069 | 12556 ft | 334 kts | 253° |
| 2026-04-22 22:29 | -5.70166 | -35.57256 | 13370 ft | 337 kts | 253° |
| 2026-04-22 22:29 | -5.70773 | -35.59580 | 14200 ft | 340 kts | 253° |
| 2026-04-22 22:29 | -5.71369 | -35.61894 | 14993 ft | 342 kts | 253° |
| 2026-04-22 22:29 | -5.71956 | -35.64194 | 15752 ft | 345 kts | 253° |
| 2026-04-22 22:30 | -5.72551 | -35.66537 | 16495 ft | 347 kts | 253° |
| 2026-04-22 22:30 | -5.73155 | -35.68918 | 17204 ft | 350 kts | 253° |
| 2026-04-22 22:30 | -5.73757 | -35.71300 | 17892 ft | 353 kts | 253° |
| 2026-04-22 22:30 | -5.74366 | -35.73714 | 18583 ft | 355 kts | 253° |
| 2026-04-22 22:31 | -5.74975 | -35.76128 | 19251 ft | 357 kts | 254° |
| 2026-04-22 22:31 | -5.75585 | -35.78550 | 19897 ft | 359 kts | 254° |
| 2026-04-22 22:31 | -5.76199 | -35.80985 | 20523 ft | 361 kts | 254° |
| 2026-04-22 22:31 | -5.76817 | -35.83440 | 21131 ft | 363 kts | 254° |
| 2026-04-22 22:32 | -5.77445 | -35.85933 | 21724 ft | 365 kts | 255° |
| 2026-04-22 22:32 | -5.78073 | -35.88428 | 22155 ft | 371 kts | 255° |
| 2026-04-22 22:32 | -5.78708 | -35.90954 | 22603 ft | 376 kts | 255° |
| 2026-04-22 22:32 | -5.79359 | -35.93546 | 23144 ft | 379 kts | 255° |
| 2026-04-22 22:33 | -5.80001 | -35.96099 | 23669 ft | 381 kts | 255° |
| 2026-04-22 22:33 | -5.80656 | -35.98706 | 24176 ft | 383 kts | 255° |
| 2026-04-22 22:33 | -5.81311 | -36.01313 | 24661 ft | 385 kts | 256° |
| 2026-04-22 22:33 | -5.81975 | -36.03958 | 25136 ft | 387 kts | 256° |
| 2026-04-22 22:34 | -5.82639 | -36.06601 | 25590 ft | 390 kts | 256° |
| 2026-04-22 22:34 | -5.83303 | -36.09248 | 26025 ft | 392 kts | 256° |
| 2026-04-22 22:34 | -5.83979 | -36.11947 | 26460 ft | 394 kts | 256° |
| 2026-04-22 22:34 | -5.84645 | -36.14616 | 26878 ft | 397 kts | 257° |
| 2026-04-22 22:35 | -5.85325 | -36.17334 | 27287 ft | 399 kts | 256° |
| 2026-04-22 22:35 | -5.86116 | -36.19971 | 27667 ft | 402 kts | 252° |
| 2026-04-22 22:35 | -5.87189 | -36.22600 | 28044 ft | 406 kts | 246° |
| 2026-04-22 22:35 | -5.88542 | -36.25154 | 28413 ft | 410 kts | 241° |
| 2026-04-22 22:36 | -5.90025 | -36.27596 | 28763 ft | 413 kts | 240° |
| 2026-04-22 22:36 | -5.91559 | -36.30055 | 29097 ft | 416 kts | 240° |
| 2026-04-22 22:36 | -5.93117 | -36.32546 | 29426 ft | 419 kts | 240° |
| 2026-04-22 22:36 | -5.94673 | -36.35036 | 29745 ft | 421 kts | 240° |
| 2026-04-22 22:37 | -5.96235 | -36.37540 | 30054 ft | 424 kts | 241° |
| 2026-04-22 22:37 | -5.97802 | -36.40054 | 30353 ft | 426 kts | 241° |
| 2026-04-22 22:37 | -5.99348 | -36.42538 | 30672 ft | 428 kts | 241° |
| 2026-04-22 22:37 | -6.00952 | -36.45113 | 31080 ft | 428 kts | 241° |
| 2026-04-22 22:38 | -6.02525 | -36.47640 | 31475 ft | 427 kts | 241° |
| 2026-04-22 22:38 | -6.04105 | -36.50180 | 31841 ft | 427 kts | 242° |
| 2026-04-22 22:38 | -6.05685 | -36.52720 | 32186 ft | 427 kts | 242° |
| 2026-04-22 22:38 | -6.07270 | -36.55270 | 32524 ft | 428 kts | 242° |
| 2026-04-22 22:39 | -6.08820 | -36.57765 | 32846 ft | 428 kts | 242° |
| 2026-04-22 22:39 | -6.10456 | -36.60296 | 33164 ft | 430 kts | 239° |
| 2026-04-22 22:39 | -6.13721 | -36.64613 | 33710 ft | 433 kts | 234° |
| 2026-04-22 22:40 | -6.15602 | -36.66884 | 33998 ft | 434 kts | 234° |
| 2026-04-22 22:40 | -6.17563 | -36.69235 | 34326 ft | 433 kts | 234° |
| 2026-04-22 22:40 | -6.19497 | -36.71551 | 34795 ft | 428 kts | 234° |
| 2026-04-22 22:40 | -6.21424 | -36.73861 | 35210 ft | 425 kts | 234° |
| 2026-04-22 22:41 | -6.23291 | -36.76105 | 35517 ft | 424 kts | 234° |
| 2026-04-22 22:41 | -6.25195 | -36.78395 | 35784 ft | 423 kts | 234° |
| 2026-04-22 22:41 | -6.27073 | -36.80653 | 36039 ft | 423 kts | 234° |
| 2026-04-22 22:41 | -6.28957 | -36.82921 | 36293 ft | 422 kts | 234° |
| 2026-04-22 22:42 | -6.30860 | -36.85214 | 36535 ft | 422 kts | 234° |
| 2026-04-22 22:42 | -6.32742 | -36.87484 | 36759 ft | 422 kts | 234° |
| 2026-04-22 22:42 | -6.34609 | -36.89735 | 36968 ft | 422 kts | 234° |
| 2026-04-22 22:42 | -6.36501 | -36.92017 | 37170 ft | 422 kts | 234° |
| 2026-04-22 22:43 | -6.38377 | -36.94279 | 37368 ft | 422 kts | 234° |
| 2026-04-22 22:43 | -6.40285 | -36.96582 | 37564 ft | 422 kts | 234° |
| 2026-04-22 22:43 | -6.42138 | -36.98828 | 37748 ft | 422 kts | 234° |
| 2026-04-22 22:43 | -6.44020 | -37.01112 | 37904 ft | 422 kts | 234° |
| 2026-04-22 22:44 | -6.45895 | -37.03389 | 37927 ft | 425 kts | 234° |
| 2026-04-22 22:44 | -6.49710 | -37.08015 | 37940 ft | 433 kts | 234° |
| 2026-04-22 22:45 | -6.53521 | -37.12641 | 37946 ft | 433 kts | 234° |
| 2026-04-22 22:45 | -6.56836 | -37.16666 | 37945 ft | 433 kts | 233° |
| 2026-04-22 22:46 | -6.61586 | -37.22394 | 37943 ft | 433 kts | 233° |
| 2026-04-22 22:46 | -6.65452 | -37.27069 | 37950 ft | 433 kts | 233° |
| 2026-04-22 22:47 | -6.69245 | -37.31663 | 37958 ft | 433 kts | 233° |
| 2026-04-22 22:47 | -6.73107 | -37.36344 | 37960 ft | 433 kts | 233° |
| 2026-04-22 22:48 | -6.76967 | -37.41025 | 37959 ft | 433 kts | 233° |
| 2026-04-22 22:48 | -6.80559 | -37.45382 | 37961 ft | 433 kts | 233° |
| 2026-04-22 22:49 | -6.84393 | -37.50034 | 37971 ft | 433 kts | 233° |
| 2026-04-22 22:49 | -6.88265 | -37.54769 | 37989 ft | 432 kts | 235° |
| 2026-04-22 22:50 | -6.91850 | -37.59555 | 38002 ft | 433 kts | 236° |
| 2026-04-22 22:50 | -6.95446 | -37.64411 | 38005 ft | 434 kts | 236° |
| 2026-04-22 22:51 | -6.99092 | -37.69327 | 38003 ft | 436 kts | 236° |
| 2026-04-22 22:51 | -7.02708 | -37.74198 | 38000 ft | 437 kts | 236° |
| 2026-04-22 22:52 | -7.06358 | -37.79116 | 38000 ft | 438 kts | 236° |
| 2026-04-22 22:52 | -7.09962 | -37.83970 | 38000 ft | 437 kts | 236° |
| 2026-04-22 22:53 | -7.13638 | -37.88924 | 38000 ft | 437 kts | 236° |
| 2026-04-22 22:53 | -7.17249 | -37.93604 | 37999 ft | 439 kts | 232° |
| 2026-04-22 22:54 | -7.21314 | -37.98250 | 38010 ft | 439 kts | 231° |
| 2026-04-22 22:54 | -7.25287 | -38.02744 | 38019 ft | 439 kts | 231° |
| 2026-04-22 22:55 | -7.29369 | -38.07372 | 38024 ft | 439 kts | 231° |
| 2026-04-22 22:55 | -7.35426 | -38.14270 | 38026 ft | 439 kts | 231° |
| 2026-04-22 22:56 | -7.39277 | -38.18664 | 38026 ft | 439 kts | 231° |
| 2026-04-22 22:56 | -7.43329 | -38.23273 | 38026 ft | 439 kts | 231° |
| 2026-04-22 22:57 | -7.47375 | -38.27873 | 38026 ft | 439 kts | 231° |
| 2026-04-22 22:57 | -7.51435 | -38.32487 | 38026 ft | 439 kts | 231° |
| 2026-04-22 22:58 | -7.55478 | -38.37080 | 38026 ft | 439 kts | 231° |
| 2026-04-22 22:58 | -7.59952 | -38.42135 | 38026 ft | 439 kts | 231° |
| 2026-04-22 22:59 | -7.63154 | -38.45779 | 38026 ft | 438 kts | 232° |
| 2026-04-22 22:59 | -7.66757 | -38.50134 | 38026 ft | 438 kts | 233° |
| 2026-04-22 23:00 | -7.70573 | -38.54821 | 38026 ft | 438 kts | 233° |
| 2026-04-22 23:00 | -7.74482 | -38.59602 | 38026 ft | 438 kts | 233° |
| 2026-04-22 23:01 | -7.78374 | -38.64351 | 38026 ft | 438 kts | 233° |
| 2026-04-22 23:01 | -7.82296 | -38.69136 | 38026 ft | 438 kts | 233° |
| 2026-04-22 23:02 | -7.86193 | -38.73890 | 38026 ft | 438 kts | 233° |
| 2026-04-22 23:02 | -7.90065 | -38.78617 | 38027 ft | 438 kts | 233° |
| 2026-04-22 23:03 | -7.93750 | -38.83116 | 38026 ft | 438 kts | 233° |
| 2026-04-22 23:03 | -7.97787 | -38.88047 | 38026 ft | 438 kts | 233° |
| 2026-04-22 23:04 | -8.01664 | -38.92804 | 38026 ft | 438 kts | 233° |
| 2026-04-22 23:04 | -8.05330 | -38.97306 | 38026 ft | 437 kts | 233° |
| 2026-04-22 23:05 | -8.09214 | -39.02065 | 38026 ft | 437 kts | 232° |
| 2026-04-22 23:05 | -8.13071 | -39.06791 | 37977 ft | 438 kts | 232° |
| 2026-04-22 23:06 | -8.15251 | -39.09464 | 37194 ft | 443 kts | 232° |
| 2026-04-22 23:06 | -8.17185 | -39.11840 | 36559 ft | 443 kts | 232° |
| 2026-04-22 23:06 | -8.19156 | -39.14270 | 35960 ft | 442 kts | 232° |
| 2026-04-22 23:06 | -8.21087 | -39.16647 | 35354 ft | 441 kts | 232° |
| 2026-04-22 23:07 | -8.23053 | -39.19064 | 34713 ft | 441 kts | 232° |
| 2026-04-22 23:07 | -8.25026 | -39.21488 | 34073 ft | 441 kts | 232° |
| 2026-04-22 23:07 | -8.26962 | -39.23864 | 33442 ft | 441 kts | 232° |
| 2026-04-22 23:07 | -8.28909 | -39.26253 | 32873 ft | 439 kts | 232° |
| 2026-04-22 23:08 | -8.30841 | -39.28625 | 32312 ft | 437 kts | 232° |
| 2026-04-22 23:08 | -8.32955 | -39.31219 | 31652 ft | 436 kts | 232° |
| 2026-04-22 23:08 | -8.34902 | -39.33609 | 31032 ft | 436 kts | 232° |
| 2026-04-22 23:08 | -8.36825 | -39.35971 | 30408 ft | 435 kts | 232° |
| 2026-04-22 23:09 | -8.38748 | -39.38332 | 29794 ft | 434 kts | 232° |
| 2026-04-22 23:09 | -8.40669 | -39.40692 | 29371 ft | 428 kts | 232° |
| 2026-04-22 23:09 | -8.42551 | -39.43002 | 28955 ft | 423 kts | 232° |
| 2026-04-22 23:09 | -8.44417 | -39.45294 | 28529 ft | 418 kts | 232° |
| 2026-04-22 23:10 | -8.46268 | -39.47568 | 28097 ft | 414 kts | 231° |
| 2026-04-22 23:10 | -8.48079 | -39.49794 | 27668 ft | 410 kts | 231° |
| 2026-04-22 23:10 | -8.49866 | -39.51989 | 27245 ft | 406 kts | 231° |
| 2026-04-22 23:10 | -8.51507 | -39.54006 | 26861 ft | 403 kts | 231° |
| 2026-04-22 23:11 | -8.53289 | -39.56196 | 26446 ft | 400 kts | 231° |
| 2026-04-22 23:11 | -8.55036 | -39.58343 | 26030 ft | 396 kts | 231° |
| 2026-04-22 23:11 | -8.56788 | -39.60487 | 25619 ft | 393 kts | 231° |
| 2026-04-22 23:11 | -8.58179 | -39.62183 | 25290 ft | 391 kts | 231° |
| 2026-04-22 23:12 | -8.59918 | -39.64311 | 24873 ft | 388 kts | 231° |
| 2026-04-22 23:12 | -8.61426 | -39.66162 | 24508 ft | 386 kts | 231° |
| 2026-04-22 23:12 | -8.67943 | -39.74185 | 23332 ft | 379 kts | 231° |
| 2026-04-22 23:12 | -8.69342 | -39.75909 | 23127 ft | 375 kts | 231° |
| 2026-04-22 23:13 | -8.70998 | -39.77948 | 22853 ft | 374 kts | 231° |
| 2026-04-22 23:13 | -8.72665 | -39.80001 | 22341 ft | 375 kts | 231° |
| 2026-04-22 23:13 | -8.74306 | -39.82023 | 21756 ft | 376 kts | 231° |
| 2026-04-22 23:13 | -8.75974 | -39.84079 | 21145 ft | 378 kts | 230° |
| 2026-04-22 23:14 | -8.77607 | -39.86093 | 20537 ft | 379 kts | 230° |
| 2026-04-22 23:14 | -8.79305 | -39.88186 | 20015 ft | 377 kts | 230° |
| 2026-04-22 23:14 | -8.80941 | -39.90203 | 19564 ft | 373 kts | 230° |
| 2026-04-22 23:14 | -8.82593 | -39.92240 | 19135 ft | 369 kts | 230° |
| 2026-04-22 23:15 | -8.84223 | -39.94250 | 18700 ft | 366 kts | 230° |
| 2026-04-22 23:15 | -8.85840 | -39.96246 | 18263 ft | 363 kts | 230° |
| 2026-04-22 23:15 | -8.87424 | -39.98199 | 17836 ft | 360 kts | 230° |
| 2026-04-22 23:15 | -8.89007 | -40.00153 | 17403 ft | 357 kts | 230° |
| 2026-04-22 23:16 | -8.90574 | -40.02085 | 16970 ft | 354 kts | 229° |
| 2026-04-22 23:16 | -8.92030 | -40.03883 | 16568 ft | 352 kts | 229° |
| 2026-04-22 23:16 | -8.93616 | -40.05840 | 16134 ft | 349 kts | 229° |
| 2026-04-22 23:16 | -8.95149 | -40.07732 | 15702 ft | 347 kts | 229° |
| 2026-04-22 23:17 | -8.96680 | -40.09623 | 15274 ft | 344 kts | 229° |
| 2026-04-22 23:17 | -8.98181 | -40.11486 | 14822 ft | 344 kts | 229° |
| 2026-04-22 23:17 | -8.99769 | -40.13464 | 14258 ft | 346 kts | 229° |
| 2026-04-22 23:17 | -9.01289 | -40.15349 | 13776 ft | 345 kts | 229° |
| 2026-04-22 23:18 | -9.02797 | -40.17216 | 13375 ft | 342 kts | 229° |
| 2026-04-22 23:18 | -9.04312 | -40.19089 | 12980 ft | 339 kts | 229° |
| 2026-04-22 23:18 | -9.05805 | -40.20933 | 12581 ft | 335 kts | 229° |
| 2026-04-22 23:18 | -9.07264 | -40.22735 | 12183 ft | 331 kts | 229° |
| 2026-04-22 23:19 | -9.09706 | -40.25753 | 11505 ft | 325 kts | 229° |
| 2026-04-22 23:19 | -9.11143 | -40.27531 | 11101 ft | 322 kts | 229° |
| 2026-04-22 23:19 | -9.12511 | -40.29301 | 10700 ft | 320 kts | 234° |
| 2026-04-22 23:20 | -9.13664 | -40.31258 | 10292 ft | 320 kts | 242° |
| 2026-04-22 23:20 | -9.14567 | -40.33336 | 9887 ft | 318 kts | 246° |
| 2026-04-22 23:20 | -9.15380 | -40.35414 | 9485 ft | 316 kts | 247° |
| 2026-04-22 23:20 | -9.16182 | -40.37497 | 9080 ft | 313 kts | 247° |
| 2026-04-22 23:21 | -9.16972 | -40.39541 | 8679 ft | 310 kts | 247° |
| 2026-04-22 23:21 | -9.17761 | -40.41569 | 8278 ft | 308 kts | 247° |
| 2026-04-22 23:21 | -9.18539 | -40.43563 | 7880 ft | 306 kts | 247° |
| 2026-04-22 23:21 | -9.19322 | -40.45565 | 7478 ft | 304 kts | 246° |
| 2026-04-22 23:22 | -9.20103 | -40.47558 | 7135 ft | 300 kts | 246° |
| 2026-04-22 23:22 | -9.20860 | -40.49489 | 6812 ft | 295 kts | 246° |
| 2026-04-22 23:22 | -9.21617 | -40.51420 | 6484 ft | 291 kts | 246° |
| 2026-04-22 23:22 | -9.22369 | -40.53337 | 6154 ft | 288 kts | 246° |
| 2026-04-22 23:23 | -9.23104 | -40.55211 | 5828 ft | 284 kts | 246° |
| 2026-04-22 23:23 | -9.23806 | -40.57002 | 5513 ft | 282 kts | 246° |
| 2026-04-22 23:23 | -9.24524 | -40.58833 | 5188 ft | 279 kts | 246° |
| 2026-04-22 23:23 | -9.25252 | -40.60688 | 4784 ft | 279 kts | 246° |
| 2026-04-22 23:24 | -9.25969 | -40.62515 | 4383 ft | 279 kts | 246° |
| 2026-04-22 23:24 | -9.26684 | -40.64337 | 3983 ft | 279 kts | 246° |
| 2026-04-22 23:24 | -9.27399 | -40.66162 | 3670 ft | 275 kts | 246° |
| 2026-04-22 23:24 | -9.28066 | -40.67867 | 3609 ft | 264 kts | 246° |
| 2026-04-22 23:25 | -9.28732 | -40.69574 | 3602 ft | 249 kts | 246° |
| 2026-04-22 23:25 | -9.29357 | -40.71167 | 3591 ft | 235 kts | 246° |
| 2026-04-22 23:25 | -9.30052 | -40.72608 | 3546 ft | 220 kts | 227° |
| 2026-04-22 23:25 | -9.31281 | -40.73365 | 3373 ft | 208 kts | 186° |
| 2026-04-22 23:26 | -9.32634 | -40.73098 | 3213 ft | 194 kts | 150° |
| 2026-04-22 23:26 | -9.33535 | -40.72138 | 3051 ft | 186 kts | 118° |
| 2026-04-22 23:26 | -9.33769 | -40.70874 | 2920 ft | 189 kts | 86° |
| 2026-04-22 23:26 | -9.33287 | -40.69600 | 2906 ft | 192 kts | 62° |
| 2026-04-22 23:27 | -9.32751 | -40.68385 | 2889 ft | 183 kts | 79° |
| 2026-04-22 23:27 | -9.32797 | -40.67210 | 2893 ft | 164 kts | 105° |
| 2026-04-22 23:27 | -9.33104 | -40.66101 | 2851 ft | 165 kts | 109° |
| 2026-04-22 23:27 | -9.33457 | -40.65016 | 2712 ft | 156 kts | 111° |
| 2026-04-22 23:28 | -9.33805 | -40.63990 | 2580 ft | 153 kts | 111° |
| 2026-04-22 23:28 | -9.34146 | -40.62997 | 2453 ft | 149 kts | 111° |
| 2026-04-22 23:28 | -9.34477 | -40.62034 | 2271 ft | 142 kts | 111° |
| 2026-04-22 23:28 | -9.34805 | -40.61079 | 2027 ft | 139 kts | 111° |
| 2026-04-22 23:29 | -9.35067 | -40.60317 | 1805 ft | 135 kts | 111° |
| 2026-04-22 23:29 | -9.35401 | -40.59340 | 1662 ft | 136 kts | 111° |
| 2026-04-22 23:29 | -9.35657 | -40.58618 | 1452 ft | 133 kts | 111° |
| 2026-04-22 23:29 | -9.35930 | -40.57834 | 1267 ft | 129 kts | 112° |
| 2026-04-22 23:30 | -9.36164 | -40.57158 | 1265 ft | 54 kts | 109° |
| 2026-04-22 23:30 | -9.36216 | -40.57006 | 1268 ft | 2 kts | 108° |
| 2026-04-22 23:30 | -9.36225 | -40.56977 | 1268 ft | 16 kts | 108° |
| 2026-04-22 23:30 | -9.36280 | -40.56818 | 1269 ft | 25 kts | 109° |
| 2026-04-22 23:31 | -9.36337 | -40.56653 | 1272 ft | 24 kts | 108° |
| 2026-04-22 23:31 | -9.36383 | -40.56558 | 1272 ft | 8 kts | 145° |
| 2026-04-22 23:31 | -9.36426 | -40.56562 | 1272 ft | 7 kts | 201° |
| 2026-04-22 23:31 | -9.36466 | -40.56577 | 1272 ft | 9 kts | 199° |
| 2026-04-22 23:32 | -9.36528 | -40.56586 | 1272 ft | 6 kts | 156° |
| 2026-04-22 23:32 | -9.36542 | -40.56564 | 1272 ft | 5 kts | 110° |
| 2026-04-22 23:32 | -9.36554 | -40.56538 | 1272 ft | 3 kts | 146° |
| 2026-04-22 23:32 | -9.36583 | -40.56543 | 1272 ft | 5 kts | 198° |
| 2026-04-22 23:33 | -9.36607 | -40.56552 | 1272 ft | 1 kts | 198° |
| 2026-04-22 23:33 | -9.36610 | -40.56553 | 1272 ft | 0 kts | 198° |